SHT9K EGPH-EGLL
Flight info
| Callsign | SHT9K |
|---|---|
| Flight time | 1h 3m |
| Altitude | 33000 |
| Route | GOSAM DCT FENIK L612 ELBUS DCT LAKEY DCT NUGRA |
| Aircraft | A320/M-SDE3FGHIRWY/LB1 |
Departure
| Time | 2026-04-22 19:08 |
|---|---|
| Airport | Edinburgh Airport (EGPH) |
Arrival
| Time | 2026-04-22 20:11 |
|---|---|
| Airport | London Heathrow Airport (EGLL) |
| Time | Latitude | Longitude | Altitude | Speed | Heading |
|---|---|---|---|---|---|
| 2026-04-22 18:47 | 55.94836 | -3.36635 | 116 ft | 0 kts | 89° |
| 2026-04-22 18:53 | 55.94836 | -3.36636 | 116 ft | 0 kts | 89° |
| 2026-04-22 18:57 | 55.94836 | -3.36638 | 116 ft | 2 kts | 89° |
| 2026-04-22 18:58 | 55.94836 | -3.36674 | 113 ft | 3 kts | 85° |
| 2026-04-22 18:58 | 55.94833 | -3.36710 | 113 ft | 3 kts | 79° |
| 2026-04-22 18:58 | 55.94828 | -3.36745 | 112 ft | 3 kts | 64° |
| 2026-04-22 18:58 | 55.94818 | -3.36772 | 115 ft | 3 kts | 25° |
| 2026-04-22 18:59 | 55.94809 | -3.36778 | 112 ft | 0 kts | 359° |
| 2026-04-22 19:01 | 55.94817 | -3.36778 | 114 ft | 5 kts | 359° |
| 2026-04-22 19:01 | 55.94884 | -3.36792 | 115 ft | 13 kts | 336° |
| 2026-04-22 19:01 | 55.94918 | -3.36921 | 114 ft | 14 kts | 240° |
| 2026-04-22 19:01 | 55.94862 | -3.37085 | 113 ft | 17 kts | 239° |
| 2026-04-22 19:02 | 55.94797 | -3.37277 | 115 ft | 20 kts | 239° |
| 2026-04-22 19:02 | 55.94722 | -3.37499 | 116 ft | 22 kts | 239° |
| 2026-04-22 19:02 | 55.94635 | -3.37754 | 115 ft | 26 kts | 239° |
| 2026-04-22 19:02 | 55.94540 | -3.38036 | 114 ft | 28 kts | 238° |
| 2026-04-22 19:03 | 55.94451 | -3.38297 | 115 ft | 22 kts | 239° |
| 2026-04-22 19:03 | 55.94368 | -3.38542 | 115 ft | 22 kts | 239° |
| 2026-04-22 19:03 | 55.94300 | -3.38743 | 113 ft | 13 kts | 239° |
| 2026-04-22 19:03 | 55.94286 | -3.38858 | 114 ft | 8 kts | 304° |
| 2026-04-22 19:04 | 55.94321 | -3.38903 | 113 ft | 3 kts | 328° |
| 2026-04-22 19:04 | 55.94352 | -3.38936 | 112 ft | 8 kts | 328° |
| 2026-04-22 19:04 | 55.94402 | -3.38980 | 114 ft | 7 kts | 358° |
| 2026-04-22 19:04 | 55.94428 | -3.38937 | 113 ft | 1 kts | 59° |
| 2026-04-22 19:07 | 55.94444 | -3.38889 | 114 ft | 25 kts | 59° |
| 2026-04-22 19:08 | 55.94668 | -3.38224 | 113 ft | 95 kts | 58° |
| 2026-04-22 19:08 | 55.95100 | -3.36933 | 172 ft | 140 kts | 59° |
| 2026-04-22 19:08 | 55.95572 | -3.35473 | 903 ft | 133 kts | 62° |
| 2026-04-22 19:08 | 55.96090 | -3.34052 | 1465 ft | 147 kts | 50° |
| 2026-04-22 19:09 | 55.96920 | -3.32776 | 1795 ft | 170 kts | 44° |
| 2026-04-22 19:09 | 55.97852 | -3.31306 | 2201 ft | 188 kts | 46° |
| 2026-04-22 19:09 | 55.98832 | -3.29616 | 2611 ft | 205 kts | 45° |
| 2026-04-22 19:09 | 56.00130 | -3.28199 | 2966 ft | 238 kts | 17° |
| 2026-04-22 19:10 | 56.01871 | -3.28428 | 3502 ft | 268 kts | 339° |
| 2026-04-22 19:10 | 56.03355 | -3.30533 | 4340 ft | 280 kts | 304° |
| 2026-04-22 19:10 | 56.04016 | -3.33786 | 5303 ft | 282 kts | 272° |
| 2026-04-22 19:10 | 56.03833 | -3.37247 | 5956 ft | 281 kts | 252° |
| 2026-04-22 19:11 | 56.03217 | -3.40516 | 6915 ft | 280 kts | 245° |
| 2026-04-22 19:11 | 56.02502 | -3.43717 | 8005 ft | 277 kts | 244° |
| 2026-04-22 19:11 | 56.01766 | -3.46944 | 8846 ft | 284 kts | 244° |
| 2026-04-22 19:11 | 56.01075 | -3.50279 | 9755 ft | 288 kts | 248° |
| 2026-04-22 19:12 | 56.00615 | -3.52746 | 10439 ft | 290 kts | 249° |
| 2026-04-22 19:12 | 56.00012 | -3.56273 | 10912 ft | 309 kts | 250° |
| 2026-04-22 19:12 | 55.99405 | -3.60132 | 11164 ft | 333 kts | 251° |
| 2026-04-22 19:12 | 55.98803 | -3.64227 | 11649 ft | 346 kts | 253° |
| 2026-04-22 19:13 | 55.98220 | -3.68359 | 12339 ft | 350 kts | 254° |
| 2026-04-22 19:13 | 55.97633 | -3.72576 | 13080 ft | 354 kts | 254° |
| 2026-04-22 19:13 | 55.97036 | -3.76828 | 13808 ft | 357 kts | 253° |
| 2026-04-22 19:13 | 55.96415 | -3.81185 | 14525 ft | 361 kts | 252° |
| 2026-04-22 19:14 | 55.95786 | -3.85525 | 15189 ft | 363 kts | 252° |
| 2026-04-22 19:14 | 55.95144 | -3.89903 | 15854 ft | 366 kts | 253° |
| 2026-04-22 19:14 | 55.94502 | -3.94293 | 16509 ft | 368 kts | 254° |
| 2026-04-22 19:14 | 55.93711 | -3.98660 | 17163 ft | 367 kts | 242° |
| 2026-04-22 19:15 | 55.92374 | -4.02384 | 17754 ft | 366 kts | 227° |
| 2026-04-22 19:15 | 55.90466 | -4.05380 | 18353 ft | 368 kts | 214° |
| 2026-04-22 19:15 | 55.88374 | -4.08026 | 18983 ft | 370 kts | 214° |
| 2026-04-22 19:15 | 55.86290 | -4.10654 | 19634 ft | 370 kts | 214° |
| 2026-04-22 19:16 | 55.84150 | -4.13352 | 20186 ft | 375 kts | 215° |
| 2026-04-22 19:16 | 55.82018 | -4.16042 | 20747 ft | 377 kts | 215° |
| 2026-04-22 19:16 | 55.79919 | -4.18696 | 21320 ft | 379 kts | 216° |
| 2026-04-22 19:16 | 55.77748 | -4.21418 | 21818 ft | 383 kts | 213° |
| 2026-04-22 19:17 | 55.75353 | -4.23578 | 22284 ft | 388 kts | 201° |
| 2026-04-22 19:17 | 55.72887 | -4.24719 | 22776 ft | 393 kts | 190° |
| 2026-04-22 19:17 | 55.70144 | -4.24951 | 23253 ft | 399 kts | 178° |
| 2026-04-22 19:17 | 55.67381 | -4.24136 | 23759 ft | 405 kts | 166° |
| 2026-04-22 19:18 | 55.64728 | -4.22408 | 24207 ft | 412 kts | 157° |
| 2026-04-22 19:18 | 55.62178 | -4.20008 | 24619 ft | 416 kts | 153° |
| 2026-04-22 19:18 | 55.59637 | -4.17518 | 25015 ft | 419 kts | 154° |
| 2026-04-22 19:18 | 55.57077 | -4.15017 | 25410 ft | 422 kts | 154° |
| 2026-04-22 19:19 | 55.54530 | -4.12533 | 25788 ft | 425 kts | 154° |
| 2026-04-22 19:19 | 55.51935 | -4.10006 | 26192 ft | 427 kts | 154° |
| 2026-04-22 19:19 | 55.49326 | -4.07470 | 26577 ft | 430 kts | 154° |
| 2026-04-22 19:19 | 55.46677 | -4.04973 | 26963 ft | 432 kts | 155° |
| 2026-04-22 19:20 | 55.44002 | -4.02544 | 27367 ft | 434 kts | 156° |
| 2026-04-22 19:20 | 55.41300 | -4.00142 | 27785 ft | 436 kts | 156° |
| 2026-04-22 19:20 | 55.38583 | -3.97748 | 28198 ft | 439 kts | 157° |
| 2026-04-22 19:20 | 55.35846 | -3.95334 | 28593 ft | 442 kts | 157° |
| 2026-04-22 19:21 | 55.33091 | -3.92894 | 28972 ft | 444 kts | 156° |
| 2026-04-22 19:21 | 55.30366 | -3.90469 | 29335 ft | 447 kts | 157° |
| 2026-04-22 19:21 | 55.27584 | -3.87992 | 29703 ft | 450 kts | 157° |
| 2026-04-22 19:21 | 55.24786 | -3.85498 | 30056 ft | 453 kts | 156° |
| 2026-04-22 19:22 | 55.21962 | -3.82982 | 30327 ft | 458 kts | 156° |
| 2026-04-22 19:22 | 55.19112 | -3.80445 | 30619 ft | 461 kts | 157° |
| 2026-04-22 19:22 | 55.16249 | -3.77899 | 31049 ft | 461 kts | 156° |
| 2026-04-22 19:22 | 55.13398 | -3.75367 | 31510 ft | 460 kts | 156° |
| 2026-04-22 19:23 | 55.10543 | -3.72837 | 31967 ft | 459 kts | 157° |
| 2026-04-22 19:23 | 55.07692 | -3.70321 | 32420 ft | 459 kts | 157° |
| 2026-04-22 19:23 | 55.04882 | -3.67845 | 32879 ft | 459 kts | 157° |
| 2026-04-22 19:23 | 55.02036 | -3.65344 | 33306 ft | 459 kts | 157° |
| 2026-04-22 19:24 | 54.99183 | -3.62843 | 33440 ft | 459 kts | 157° |
| 2026-04-22 19:24 | 54.93494 | -3.57859 | 33460 ft | 457 kts | 157° |
| 2026-04-22 19:25 | 54.87810 | -3.52896 | 33457 ft | 457 kts | 157° |
| 2026-04-22 19:25 | 54.82130 | -3.47952 | 33451 ft | 457 kts | 157° |
| 2026-04-22 19:26 | 54.76491 | -3.43052 | 33447 ft | 457 kts | 157° |
| 2026-04-22 19:26 | 54.70805 | -3.38129 | 33462 ft | 457 kts | 157° |
| 2026-04-22 19:27 | 54.65112 | -3.33219 | 33438 ft | 457 kts | 157° |
| 2026-04-22 19:27 | 54.59420 | -3.28322 | 33437 ft | 457 kts | 157° |
| 2026-04-22 19:28 | 54.53759 | -3.23474 | 33450 ft | 457 kts | 157° |
| 2026-04-22 19:28 | 54.48064 | -3.18611 | 33435 ft | 458 kts | 156° |
| 2026-04-22 19:29 | 54.42347 | -3.13741 | 33434 ft | 459 kts | 156° |
| 2026-04-22 19:29 | 54.36615 | -3.08882 | 33433 ft | 460 kts | 156° |
| 2026-04-22 19:30 | 54.31843 | -3.04834 | 33430 ft | 460 kts | 156° |
| 2026-04-22 19:30 | 54.25165 | -2.99196 | 33420 ft | 461 kts | 157° |
| 2026-04-22 19:31 | 54.19191 | -2.95412 | 33441 ft | 458 kts | 165° |
| 2026-04-22 19:31 | 54.13155 | -2.91953 | 33442 ft | 457 kts | 164° |
| 2026-04-22 19:32 | 54.07168 | -2.88508 | 33433 ft | 458 kts | 164° |
| 2026-04-22 19:32 | 54.01131 | -2.85055 | 33428 ft | 458 kts | 164° |
| 2026-04-22 19:33 | 53.95090 | -2.81614 | 33421 ft | 458 kts | 164° |
| 2026-04-22 19:33 | 53.89046 | -2.78182 | 33434 ft | 458 kts | 165° |
| 2026-04-22 19:34 | 53.83046 | -2.74796 | 33440 ft | 458 kts | 165° |
| 2026-04-22 19:34 | 53.77004 | -2.71383 | 33436 ft | 458 kts | 164° |
| 2026-04-22 19:35 | 53.73540 | -2.69420 | 33437 ft | 457 kts | 159° |
| 2026-04-22 19:35 | 53.71578 | -2.67787 | 33368 ft | 452 kts | 145° |
| 2026-04-22 19:36 | 53.68009 | -2.62143 | 33852 ft | 446 kts | 133° |
| 2026-04-22 19:36 | 53.66583 | -2.58731 | 34125 ft | 444 kts | 118° |
| 2026-04-22 19:36 | 53.65501 | -2.54993 | 34336 ft | 441 kts | 116° |
| 2026-04-22 19:36 | 53.64565 | -2.51571 | 34606 ft | 433 kts | 111° |
| 2026-04-22 19:37 | 53.63237 | -2.46998 | 35086 ft | 428 kts | 128° |
| 2026-04-22 19:37 | 53.61173 | -2.43547 | 34577 ft | 431 kts | 148° |
| 2026-04-22 19:37 | 53.58416 | -2.41547 | 33749 ft | 438 kts | 173° |
| 2026-04-22 19:37 | 53.55361 | -2.41261 | 33499 ft | 446 kts | 183° |
| 2026-04-22 19:38 | 53.52244 | -2.41266 | 33406 ft | 451 kts | 183° |
| 2026-04-22 19:38 | 53.45979 | -2.41289 | 33431 ft | 454 kts | 183° |
| 2026-04-22 19:39 | 53.39657 | -2.41318 | 33434 ft | 455 kts | 183° |
| 2026-04-22 19:39 | 53.33317 | -2.41349 | 33436 ft | 455 kts | 183° |
| 2026-04-22 19:40 | 53.26992 | -2.41382 | 33434 ft | 455 kts | 183° |
| 2026-04-22 19:40 | 53.20757 | -2.40097 | 33428 ft | 461 kts | 163° |
| 2026-04-22 19:41 | 53.14665 | -2.36713 | 33423 ft | 462 kts | 164° |
| 2026-04-22 19:41 | 53.08550 | -2.33404 | 33419 ft | 462 kts | 164° |
| 2026-04-22 19:42 | 53.02518 | -2.29726 | 33403 ft | 464 kts | 155° |
| 2026-04-22 19:42 | 52.97031 | -2.24154 | 33391 ft | 466 kts | 149° |
| 2026-04-22 19:43 | 52.88811 | -2.15543 | 33400 ft | 466 kts | 149° |
| 2026-04-22 19:43 | 52.83329 | -2.09827 | 33401 ft | 466 kts | 149° |
| 2026-04-22 19:44 | 52.77833 | -2.04104 | 33409 ft | 466 kts | 149° |
| 2026-04-22 19:44 | 52.72344 | -1.98411 | 33329 ft | 468 kts | 149° |
| 2026-04-22 19:45 | 52.69605 | -1.95579 | 32679 ft | 470 kts | 149° |
| 2026-04-22 19:45 | 52.66841 | -1.92725 | 32030 ft | 470 kts | 149° |
| 2026-04-22 19:45 | 52.64068 | -1.89861 | 31387 ft | 470 kts | 149° |
| 2026-04-22 19:45 | 52.61297 | -1.87004 | 30754 ft | 471 kts | 149° |
| 2026-04-22 19:46 | 52.58521 | -1.84153 | 30080 ft | 471 kts | 149° |
| 2026-04-22 19:46 | 52.55742 | -1.81301 | 29380 ft | 469 kts | 149° |
| 2026-04-22 19:46 | 52.52994 | -1.78482 | 28691 ft | 464 kts | 149° |
| 2026-04-22 19:46 | 52.50270 | -1.75688 | 28016 ft | 459 kts | 149° |
| 2026-04-22 19:47 | 52.47610 | -1.72964 | 27362 ft | 454 kts | 149° |
| 2026-04-22 19:47 | 52.44943 | -1.70237 | 26726 ft | 450 kts | 149° |
| 2026-04-22 19:47 | 52.42301 | -1.67538 | 26099 ft | 446 kts | 149° |
| 2026-04-22 19:47 | 52.39682 | -1.64873 | 25487 ft | 442 kts | 149° |
| 2026-04-22 19:48 | 52.37076 | -1.62228 | 24878 ft | 438 kts | 148° |
| 2026-04-22 19:48 | 52.34497 | -1.59613 | 24292 ft | 434 kts | 148° |
| 2026-04-22 19:48 | 52.32075 | -1.57158 | 23715 ft | 429 kts | 148° |
| 2026-04-22 19:48 | 52.29475 | -1.54522 | 23055 ft | 424 kts | 148° |
| 2026-04-22 19:49 | 52.26988 | -1.52008 | 22461 ft | 419 kts | 148° |
| 2026-04-22 19:49 | 52.24530 | -1.49527 | 21948 ft | 412 kts | 147° |
| 2026-04-22 19:49 | 52.22111 | -1.47059 | 21430 ft | 407 kts | 144° |
| 2026-04-22 19:49 | 52.19944 | -1.44247 | 20942 ft | 402 kts | 138° |
| 2026-04-22 19:50 | 52.17833 | -1.41291 | 20440 ft | 398 kts | 137° |
| 2026-04-22 19:50 | 52.15741 | -1.38365 | 19948 ft | 394 kts | 138° |
| 2026-04-22 19:50 | 52.13676 | -1.35484 | 19472 ft | 389 kts | 138° |
| 2026-04-22 19:50 | 52.11632 | -1.32638 | 19003 ft | 384 kts | 138° |
| 2026-04-22 19:51 | 52.09610 | -1.29831 | 18555 ft | 381 kts | 139° |
| 2026-04-22 19:51 | 52.07606 | -1.27050 | 18064 ft | 377 kts | 139° |
| 2026-04-22 19:51 | 52.05646 | -1.24326 | 17588 ft | 374 kts | 139° |
| 2026-04-22 19:51 | 52.03684 | -1.21599 | 17110 ft | 368 kts | 139° |
| 2026-04-22 19:52 | 52.01762 | -1.18930 | 16605 ft | 361 kts | 139° |
| 2026-04-22 19:52 | 51.99865 | -1.16303 | 16149 ft | 354 kts | 139° |
| 2026-04-22 19:52 | 51.98009 | -1.13740 | 15719 ft | 348 kts | 139° |
| 2026-04-22 19:52 | 51.96177 | -1.11214 | 15300 ft | 342 kts | 139° |
| 2026-04-22 19:53 | 51.94382 | -1.08744 | 14890 ft | 336 kts | 139° |
| 2026-04-22 19:53 | 51.92613 | -1.06308 | 14499 ft | 331 kts | 139° |
| 2026-04-22 19:53 | 51.90878 | -1.03922 | 14113 ft | 325 kts | 139° |
| 2026-04-22 19:53 | 51.89185 | -1.01596 | 13689 ft | 320 kts | 139° |
| 2026-04-22 19:54 | 51.87500 | -0.99281 | 13262 ft | 316 kts | 139° |
| 2026-04-22 19:54 | 51.85854 | -0.96952 | 12833 ft | 312 kts | 134° |
| 2026-04-22 19:54 | 51.84628 | -0.94089 | 12435 ft | 309 kts | 117° |
| 2026-04-22 19:54 | 51.83685 | -0.90986 | 12041 ft | 306 kts | 117° |
| 2026-04-22 19:55 | 51.82751 | -0.87913 | 11649 ft | 304 kts | 117° |
| 2026-04-22 19:55 | 51.81818 | -0.84857 | 11251 ft | 302 kts | 117° |
| 2026-04-22 19:55 | 51.80889 | -0.81831 | 10843 ft | 300 kts | 117° |
| 2026-04-22 19:55 | 51.79968 | -0.78825 | 10472 ft | 297 kts | 117° |
| 2026-04-22 19:56 | 51.79055 | -0.75849 | 10070 ft | 296 kts | 117° |
| 2026-04-22 19:56 | 51.78143 | -0.72885 | 9655 ft | 294 kts | 117° |
| 2026-04-22 19:56 | 51.77249 | -0.69978 | 9240 ft | 292 kts | 117° |
| 2026-04-22 19:56 | 51.76346 | -0.67053 | 8831 ft | 290 kts | 117° |
| 2026-04-22 19:57 | 51.75444 | -0.64144 | 8423 ft | 289 kts | 117° |
| 2026-04-22 19:57 | 51.74547 | -0.61251 | 8016 ft | 288 kts | 117° |
| 2026-04-22 19:57 | 51.73647 | -0.58376 | 7616 ft | 286 kts | 120° |
| 2026-04-22 19:57 | 51.72352 | -0.56035 | 7440 ft | 278 kts | 145° |
| 2026-04-22 19:58 | 51.70609 | -0.54923 | 7432 ft | 267 kts | 170° |
| 2026-04-22 19:58 | 51.68760 | -0.54742 | 7359 ft | 266 kts | 175° |
| 2026-04-22 19:58 | 51.66916 | -0.54634 | 7364 ft | 265 kts | 175° |
| 2026-04-22 19:58 | 51.65098 | -0.54537 | 7357 ft | 265 kts | 175° |
| 2026-04-22 19:59 | 51.63292 | -0.54667 | 7354 ft | 256 kts | 190° |
| 2026-04-22 20:00 | 51.59713 | -0.69231 | 6699 ft | 254 kts | 261° |
| 2026-04-22 20:00 | 51.59537 | -0.72056 | 6519 ft | 253 kts | 261° |
| 2026-04-22 20:01 | 51.59357 | -0.74875 | 6242 ft | 253 kts | 261° |
| 2026-04-22 20:01 | 51.58854 | -0.77472 | 5954 ft | 245 kts | 232° |
| 2026-04-22 20:01 | 51.57615 | -0.79199 | 5626 ft | 234 kts | 199° |
| 2026-04-22 20:01 | 51.56060 | -0.79628 | 5320 ft | 225 kts | 174° |
| 2026-04-22 20:02 | 51.54496 | -0.79541 | 4993 ft | 225 kts | 174° |
| 2026-04-22 20:02 | 51.52933 | -0.79456 | 4655 ft | 224 kts | 174° |
| 2026-04-22 20:02 | 51.51377 | -0.79370 | 4322 ft | 224 kts | 174° |
| 2026-04-22 20:02 | 51.49811 | -0.79569 | 3973 ft | 231 kts | 194° |
| 2026-04-22 20:03 | 51.48479 | -0.81016 | 3657 ft | 243 kts | 225° |
| 2026-04-22 20:03 | 51.47764 | -0.83488 | 3315 ft | 252 kts | 258° |
| 2026-04-22 20:03 | 51.47925 | -0.86276 | 2981 ft | 254 kts | 292° |
| 2026-04-22 20:03 | 51.48924 | -0.88544 | 2646 ft | 248 kts | 327° |
| 2026-04-22 20:04 | 51.50405 | -0.89578 | 2506 ft | 218 kts | 4° |
| 2026-04-22 20:04 | 51.51732 | -0.89167 | 2520 ft | 180 kts | 40° |
| 2026-04-22 20:04 | 51.52439 | -0.87712 | 2550 ft | 161 kts | 79° |
| 2026-04-22 20:04 | 51.52295 | -0.86011 | 2544 ft | 157 kts | 114° |
| 2026-04-22 20:05 | 51.51676 | -0.84554 | 2532 ft | 159 kts | 124° |
| 2026-04-22 20:05 | 51.50974 | -0.83201 | 2541 ft | 160 kts | 126° |
| 2026-04-22 20:05 | 51.50243 | -0.81826 | 2527 ft | 160 kts | 126° |
| 2026-04-22 20:05 | 51.49529 | -0.80486 | 2538 ft | 160 kts | 126° |
| 2026-04-22 20:06 | 51.48804 | -0.79124 | 2528 ft | 160 kts | 126° |
| 2026-04-22 20:06 | 51.48084 | -0.77762 | 2537 ft | 160 kts | 124° |
| 2026-04-22 20:06 | 51.47637 | -0.76175 | 2543 ft | 156 kts | 99° |
| 2026-04-22 20:06 | 51.47610 | -0.74443 | 2534 ft | 155 kts | 91° |
| 2026-04-22 20:07 | 51.47622 | -0.72717 | 2531 ft | 155 kts | 91° |
| 2026-04-22 20:07 | 51.47634 | -0.70989 | 2534 ft | 152 kts | 91° |
| 2026-04-22 20:07 | 51.47644 | -0.69401 | 2540 ft | 139 kts | 91° |
| 2026-04-22 20:07 | 51.47653 | -0.67875 | 2467 ft | 136 kts | 91° |
| 2026-04-22 20:08 | 51.47662 | -0.66364 | 2320 ft | 134 kts | 91° |
| 2026-04-22 20:08 | 51.47670 | -0.64879 | 2160 ft | 133 kts | 91° |
| 2026-04-22 20:08 | 51.47678 | -0.63402 | 1983 ft | 133 kts | 90° |
| 2026-04-22 20:08 | 51.47686 | -0.61912 | 1823 ft | 134 kts | 89° |
| 2026-04-22 20:09 | 51.47692 | -0.60418 | 1664 ft | 135 kts | 89° |
| 2026-04-22 20:09 | 51.47699 | -0.58928 | 1487 ft | 132 kts | 89° |
| 2026-04-22 20:09 | 51.47706 | -0.57483 | 1245 ft | 126 kts | 90° |
| 2026-04-22 20:09 | 51.47712 | -0.56079 | 1047 ft | 127 kts | 89° |
| 2026-04-22 20:10 | 51.47713 | -0.54687 | 877 ft | 126 kts | 86° |
| 2026-04-22 20:10 | 51.47722 | -0.53275 | 686 ft | 127 kts | 87° |
| 2026-04-22 20:10 | 51.47727 | -0.51869 | 534 ft | 126 kts | 88° |
| 2026-04-22 20:10 | 51.47739 | -0.50466 | 332 ft | 125 kts | 88° |
| 2026-04-22 20:11 | 51.47747 | -0.49068 | 171 ft | 126 kts | 89° |
| 2026-04-22 20:11 | 51.47751 | -0.47690 | 93 ft | 115 kts | 88° |
| 2026-04-22 20:11 | 51.47756 | -0.46625 | 92 ft | 69 kts | 90° |
| 2026-04-22 20:11 | 51.47760 | -0.46014 | 85 ft | 46 kts | 90° |
| 2026-04-22 20:12 | 51.47758 | -0.45564 | 86 ft | 25 kts | 102° |
| 2026-04-22 20:12 | 51.47674 | -0.45467 | 87 ft | 13 kts | 177° |
| 2026-04-22 20:12 | 51.47614 | -0.45478 | 88 ft | 13 kts | 204° |
| 2026-04-22 20:12 | 51.47596 | -0.45676 | 88 ft | 15 kts | 270° |
| 2026-04-22 20:13 | 51.47596 | -0.45860 | 86 ft | 18 kts | 270° |
| 2026-04-22 20:13 | 51.47595 | -0.46072 | 89 ft | 20 kts | 270° |
| 2026-04-22 20:13 | 51.47594 | -0.46297 | 86 ft | 22 kts | 269° |
| 2026-04-22 20:13 | 51.47593 | -0.46527 | 86 ft | 22 kts | 270° |
| 2026-04-22 20:14 | 51.47592 | -0.46764 | 86 ft | 22 kts | 269° |
| 2026-04-22 20:14 | 51.47583 | -0.46999 | 86 ft | 21 kts | 269° |
| 2026-04-22 20:14 | 51.47582 | -0.47252 | 90 ft | 24 kts | 269° |
| 2026-04-22 20:14 | 51.47581 | -0.47494 | 90 ft | 21 kts | 269° |
| 2026-04-22 20:15 | 51.47580 | -0.47749 | 90 ft | 25 kts | 270° |
| 2026-04-22 20:15 | 51.47579 | -0.48015 | 87 ft | 19 kts | 270° |
| 2026-04-22 20:15 | 51.47579 | -0.48228 | 88 ft | 19 kts | 270° |
| 2026-04-22 20:15 | 51.47535 | -0.48359 | 89 ft | 15 kts | 185° |
| 2026-04-22 20:16 | 51.47488 | -0.48461 | 89 ft | 14 kts | 270° |
| 2026-04-22 20:16 | 51.47487 | -0.48637 | 89 ft | 17 kts | 269° |
| 2026-04-22 20:16 | 51.47487 | -0.48808 | 87 ft | 12 kts | 270° |
| 2026-04-22 20:16 | 51.47465 | -0.48893 | 90 ft | 6 kts | 183° |
| 2026-04-22 20:17 | 51.47434 | -0.48891 | 86 ft | 4 kts | 180° |
| 2026-04-22 20:17 | 51.47416 | -0.48891 | 86 ft | 2 kts | 180° |
| 2026-04-22 20:17 | 51.47407 | -0.48891 | 87 ft | 0 kts | 180° |